createdAt,value
2022-12-17T00:02:29.596Z,97627.63
2022-12-17T00:05:14.797Z,97633.78
2022-12-17T00:07:59.600Z,97636.66
2022-12-17T00:10:44.878Z,97648.56
2022-12-17T00:13:48.325Z,97647.22
2022-12-17T00:16:33.650Z,97652.59
2022-12-17T00:19:18.690Z,97660.19
2022-12-17T00:22:03.761Z,97672.03
2022-12-17T00:24:48.573Z,97673.06
2022-12-17T00:27:33.877Z,97677.66
2022-12-17T00:30:19.013Z,97679.16
2022-12-17T00:33:03.958Z,97677.81
2022-12-17T00:35:49.315Z,97677.44
2022-12-17T00:38:35.563Z,97683.72
2022-12-17T00:41:20.708Z,97686.06
2022-12-17T00:44:05.813Z,97688.59
2022-12-17T00:46:51.111Z,97682.13
2022-12-17T00:49:37.030Z,97683.34
2022-12-17T00:52:22.129Z,97692.38
2022-12-17T00:55:07.214Z,97694.56
2022-12-17T00:57:52.211Z,97704.78
2022-12-17T01:00:37.326Z,97709.28
2022-12-17T01:03:28.274Z,97712.72
2022-12-17T01:06:13.314Z,97717.16
2022-12-17T01:08:59.156Z,97720.66
2022-12-17T01:11:44.500Z,97731.38
2022-12-17T01:14:29.689Z,97726.97
2022-12-17T01:17:14.944Z,97734.25
2022-12-17T01:20:00.232Z,97735.25
2022-12-17T01:22:45.558Z,97750.31
2022-12-17T01:25:30.682Z,97747.16
2022-12-17T01:28:16.061Z,97752.81
2022-12-17T01:31:01.488Z,97763.97
2022-12-17T01:33:46.615Z,97757.34
2022-12-17T01:36:31.703Z,97762.00
2022-12-17T01:39:17.168Z,97768.88
2022-12-17T01:42:02.210Z,97767.31
2022-12-17T01:45:13.215Z,97771.00
2022-12-17T01:48:14.705Z,97779.38
2022-12-17T01:51:08.025Z,97778.78
2022-12-17T01:54:09.900Z,97781.66
2022-12-17T01:56:56.621Z,97782.91
2022-12-17T01:59:48.045Z,97781.63
2022-12-17T02:02:33.452Z,97781.19
2022-12-17T02:05:18.329Z,97784.47
2022-12-17T02:08:06.562Z,97786.22
2022-12-17T02:11:26.843Z,97790.44
2022-12-17T02:14:40.464Z,97789.69
2022-12-17T02:17:30.086Z,97798.94
2022-12-17T02:20:34.448Z,97790.78
2022-12-17T02:24:03.669Z,97791.44
2022-12-17T02:27:03.854Z,97785.44
2022-12-17T02:30:09.069Z,97798.66
2022-12-17T02:32:58.363Z,97794.13
2022-12-17T02:35:51.196Z,97793.81
2022-12-17T02:38:37.266Z,97802.94
2022-12-17T02:41:25.009Z,97803.41
2022-12-17T02:44:11.512Z,97805.47
2022-12-17T02:47:00.762Z,97812.25
2022-12-17T02:49:45.699Z,97816.31
2022-12-17T02:52:34.839Z,97812.72
2022-12-17T02:55:20.240Z,97814.47
2022-12-17T02:58:05.633Z,97822.31
2022-12-17T03:00:50.845Z,97831.28
2022-12-17T03:03:36.074Z,97820.75
2022-12-17T03:06:21.546Z,97835.53
2022-12-17T03:09:06.673Z,97848.13
2022-12-17T03:11:51.710Z,97846.25
2022-12-17T03:14:36.605Z,97845.13
2022-12-17T03:17:21.831Z,97845.59
2022-12-17T03:20:07.195Z,97859.13
2022-12-17T03:22:52.420Z,97851.56
2022-12-17T03:25:37.686Z,97861.94
2022-12-17T03:28:28.125Z,97862.44
2022-12-17T03:31:13.303Z,97864.28
2022-12-17T03:33:58.345Z,97859.56
2022-12-17T03:36:43.403Z,97871.69
2022-12-17T03:39:28.590Z,97866.03
2022-12-17T03:42:13.816Z,97869.16
2022-12-17T03:44:58.774Z,97876.22
2022-12-17T03:47:43.799Z,97872.63
2022-12-17T03:50:28.891Z,97871.22
2022-12-17T03:53:14.226Z,97866.97
2022-12-17T03:55:59.125Z,97869.44
2022-12-17T03:58:43.951Z,97871.66
2022-12-17T04:01:28.861Z,97879.72
2022-12-17T04:04:14.199Z,97884.59
2022-12-17T04:06:59.287Z,97881.31
2022-12-17T04:09:44.280Z,97888.38
2022-12-17T04:12:29.386Z,97896.69
2022-12-17T04:15:14.091Z,97893.53
2022-12-17T04:17:59.051Z,97902.38
2022-12-17T04:20:44.178Z,97910.03
2022-12-17T04:23:33.928Z,97909.69
2022-12-17T04:26:19.003Z,97915.66
2022-12-17T04:29:03.923Z,97919.81
2022-12-17T04:31:48.953Z,97928.47
2022-12-17T04:34:33.678Z,97933.47
2022-12-17T04:37:18.821Z,97933.16
2022-12-17T04:40:17.833Z,97936.41
2022-12-17T04:43:02.810Z,97940.53
2022-12-17T04:45:48.152Z,97944.94
2022-12-17T04:48:33.319Z,97936.88
2022-12-17T04:51:18.919Z,97939.94
2022-12-17T04:54:03.822Z,97946.00
2022-12-17T04:56:49.077Z,97944.94
2022-12-17T04:59:34.295Z,97951.81
2022-12-17T05:02:19.648Z,97946.00
2022-12-17T05:05:05.069Z,97948.69
2022-12-17T05:07:50.025Z,97952.09
2022-12-17T05:10:34.969Z,97971.41
2022-12-17T05:13:21.244Z,97968.66
2022-12-17T05:16:10.875Z,97973.72
2022-12-17T05:18:55.870Z,97974.78
2022-12-17T05:21:40.938Z,97972.72
2022-12-17T05:24:26.325Z,97989.22
2022-12-17T05:27:11.668Z,97987.88
2022-12-17T05:29:56.799Z,97992.50
2022-12-17T05:32:42.212Z,98000.38
2022-12-17T05:35:35.251Z,98005.00
2022-12-17T05:38:24.807Z,98012.78
2022-12-17T05:41:10.359Z,98010.94
2022-12-17T05:43:55.638Z,98012.88
2022-12-17T05:46:40.568Z,98020.03
2022-12-17T05:49:26.949Z,98030.09
2022-12-17T05:52:11.796Z,98027.91
2022-12-17T05:54:56.867Z,98037.00
2022-12-17T05:57:42.104Z,98034.03
2022-12-17T06:00:27.868Z,98030.72
2022-12-17T06:03:23.194Z,98033.47
2022-12-17T06:06:15.491Z,98043.53
2022-12-17T06:09:00.597Z,98046.34
2022-12-17T06:11:45.659Z,98051.66
2022-12-17T06:14:30.622Z,98046.81
2022-12-17T06:17:15.698Z,98059.56
2022-12-17T06:20:00.823Z,98057.13
2022-12-17T06:22:45.819Z,98064.34
2022-12-17T06:25:31.028Z,98067.41
2022-12-17T06:28:20.542Z,98065.91
2022-12-17T06:31:23.663Z,98074.53
2022-12-17T06:34:08.747Z,98075.22
2022-12-17T06:36:53.643Z,98080.06
2022-12-17T06:39:38.868Z,98084.13
2022-12-17T06:42:24.026Z,98081.38
2022-12-17T06:45:09.401Z,98092.63
2022-12-17T06:47:55.047Z,98091.75
2022-12-17T06:50:40.057Z,98101.59
2022-12-17T06:53:26.277Z,98102.00
2022-12-17T06:56:11.524Z,98107.50
2022-12-17T06:58:56.817Z,98110.97
2022-12-17T07:01:41.967Z,98118.59
2022-12-17T07:04:27.165Z,98113.50
2022-12-17T07:07:12.580Z,98101.69
2022-12-17T07:09:57.539Z,98116.09
2022-12-17T07:12:42.510Z,98124.75
2022-12-17T07:15:28.013Z,98126.47
2022-12-17T07:18:23.246Z,98133.56
2022-12-17T07:21:11.951Z,98130.13
2022-12-17T07:23:57.182Z,98149.72
2022-12-17T07:26:42.470Z,98151.41
2022-12-17T07:29:27.630Z,98149.22
2022-12-17T07:32:12.671Z,98160.50
2022-12-17T07:34:57.606Z,98155.16
2022-12-17T07:37:42.558Z,98165.41
2022-12-17T07:40:28.429Z,98165.06
2022-12-17T07:43:13.654Z,98176.22
2022-12-17T07:45:58.828Z,98182.41
2022-12-17T07:48:43.927Z,98186.88
2022-12-17T07:51:29.146Z,98182.72
2022-12-17T07:54:13.837Z,98195.00
2022-12-17T07:56:58.715Z,98185.88
2022-12-17T07:59:43.785Z,98192.63
2022-12-17T08:02:29.783Z,98198.59
2022-12-17T08:05:14.786Z,98197.84
2022-12-17T08:07:59.937Z,98200.53
2022-12-17T08:10:44.914Z,98204.63
2022-12-17T08:13:30.073Z,98203.25
2022-12-17T08:16:15.356Z,98206.41
2022-12-17T08:19:00.543Z,98210.56
2022-12-17T08:21:45.663Z,98217.97
2022-12-17T08:24:30.349Z,98217.78
2022-12-17T08:27:15.200Z,98222.25
2022-12-17T08:30:00.224Z,98225.59
2022-12-17T08:32:45.702Z,98225.63
2022-12-17T08:35:30.930Z,98231.84
2022-12-17T08:38:20.827Z,98242.63
2022-12-17T08:41:16.529Z,98239.59
2022-12-17T08:44:01.474Z,98244.94
2022-12-17T08:46:46.608Z,98252.75
2022-12-17T08:49:31.905Z,98255.03
2022-12-17T08:52:16.648Z,98254.75
2022-12-17T08:55:01.510Z,98253.56
2022-12-17T08:57:46.531Z,98254.13
2022-12-17T09:00:32.153Z,98259.25
2022-12-17T09:03:20.529Z,98259.63
2022-12-17T09:06:06.264Z,98261.41
2022-12-17T09:08:52.060Z,98260.47
2022-12-17T09:11:37.180Z,98273.03
2022-12-17T09:14:22.428Z,98273.88
2022-12-17T09:17:07.641Z,98274.00
2022-12-17T09:19:52.304Z,98273.13
2022-12-17T09:22:37.173Z,98290.16
2022-12-17T09:25:22.182Z,98294.75
2022-12-17T09:28:07.302Z,98300.03
2022-12-17T09:30:52.598Z,98301.06
2022-12-17T09:33:38.260Z,98297.09
2022-12-17T09:36:25.245Z,98292.25
2022-12-17T09:39:10.130Z,98287.25
2022-12-17T09:42:19.789Z,98293.16
2022-12-17T09:45:20.947Z,98295.94
2022-12-17T09:48:13.102Z,98287.25
2022-12-17T09:50:58.319Z,98293.09
2022-12-17T09:53:51.043Z,98293.91
2022-12-17T09:56:40.191Z,98302.63
2022-12-17T09:59:42.242Z,98299.13
2022-12-17T10:02:33.547Z,98297.22
2022-12-17T10:05:21.332Z,98301.34
2022-12-17T10:08:07.337Z,98311.81
2022-12-17T10:10:52.789Z,98309.78
2022-12-17T10:13:41.031Z,98315.13
2022-12-17T10:16:40.335Z,98314.06
2022-12-17T10:19:33.049Z,98311.19
2022-12-17T10:22:33.061Z,98301.09
2022-12-17T10:25:39.489Z,98301.91
2022-12-17T10:28:36.013Z,98295.53
2022-12-17T10:31:27.944Z,98303.41
2022-12-17T10:34:16.800Z,98306.53
2022-12-17T10:37:09.055Z,98306.16
2022-12-17T10:39:54.573Z,98304.91
2022-12-17T10:42:56.740Z,98312.09
2022-12-17T10:45:52.249Z,98310.38
2022-12-17T10:48:49.108Z,98305.78
2022-12-17T10:51:45.063Z,98304.72
2022-12-17T10:54:50.810Z,98307.06
2022-12-17T10:57:43.687Z,98313.16
2022-12-17T11:00:49.424Z,98321.50
2022-12-17T11:04:03.738Z,98309.16
2022-12-17T11:06:53.053Z,98322.00
2022-12-17T11:09:51.600Z,98318.56
2022-12-17T11:12:40.519Z,98327.78
2022-12-17T11:15:52.778Z,98324.13
2022-12-17T11:18:47.214Z,98341.53
2022-12-17T11:21:57.709Z,98343.41
2022-12-17T11:24:46.964Z,98330.69
2022-12-17T11:27:38.810Z,98341.75
2022-12-17T11:30:35.746Z,98334.47
2022-12-17T11:33:43.417Z,98340.78
2022-12-17T11:36:39.190Z,98341.41
2022-12-17T11:39:39.067Z,98341.72
2022-12-17T11:42:43.663Z,98339.97
2022-12-17T11:45:52.333Z,98342.88
2022-12-17T11:48:57.530Z,98329.41
2022-12-17T11:52:04.755Z,98331.91
2022-12-17T11:55:27.977Z,98329.00
2022-12-17T11:58:19.657Z,98341.72
2022-12-17T12:01:20.509Z,98349.41
2022-12-17T12:04:32.521Z,98339.19
2022-12-17T12:07:34.442Z,98339.41
2022-12-17T12:10:25.152Z,98337.56
2022-12-17T12:13:31.007Z,98340.09
2022-12-17T12:16:43.667Z,98338.00
2022-12-17T12:19:45.477Z,98333.50
2022-12-17T12:22:54.979Z,98335.41
2022-12-17T12:26:03.043Z,98344.53
2022-12-17T12:29:13.995Z,98338.19
2022-12-17T12:32:11.782Z,98338.22
2022-12-17T12:34:57.598Z,98338.78
2022-12-17T12:37:43.111Z,98344.13
2022-12-17T12:40:50.375Z,98344.28
2022-12-17T12:43:48.839Z,98334.44
2022-12-17T12:46:50.902Z,98345.63
2022-12-17T12:49:49.815Z,98347.09
2022-12-17T12:52:44.001Z,98347.91
2022-12-17T12:55:29.294Z,98338.19
2022-12-17T12:58:22.951Z,98347.94
2022-12-17T13:01:08.053Z,98349.91
2022-12-17T13:03:57.239Z,98346.28
2022-12-17T13:06:48.925Z,98355.56
2022-12-17T13:09:15.355Z,98357.00
2022-12-17T13:11:46.465Z,98352.91
2022-12-17T13:14:20.614Z,98367.75
2022-12-17T13:16:47.144Z,98361.59
2022-12-17T13:19:34.612Z,98365.75
2022-12-17T13:22:11.306Z,98374.06
2022-12-17T13:24:38.354Z,98353.81
2022-12-17T13:27:05.261Z,98359.63
2022-12-17T13:29:35.946Z,98356.53
2022-12-17T13:32:24.396Z,98360.09
2022-12-17T13:35:29.751Z,98369.84
2022-12-17T13:38:07.527Z,98373.13
2022-12-17T13:40:34.056Z,98375.31
2022-12-17T13:43:00.557Z,98376.88
2022-12-17T13:45:28.040Z,98388.34
2022-12-17T13:47:59.318Z,98381.22
2022-12-17T13:50:34.456Z,98387.81
2022-12-17T13:53:13.244Z,98391.94
2022-12-17T13:55:40.464Z,98390.16
2022-12-17T13:58:26.251Z,98394.59
2022-12-17T14:01:05.413Z,98392.22
2022-12-17T14:03:56.882Z,98391.91
2022-12-17T14:06:19.708Z,98397.13
2022-12-17T14:08:49.266Z,98401.81
2022-12-17T14:11:35.036Z,98407.03
2022-12-17T14:14:02.236Z,98404.06
2022-12-17T14:16:29.584Z,98406.84
2022-12-17T14:18:58.402Z,98403.41
2022-12-17T14:21:27.648Z,98402.94
2022-12-17T14:23:56.090Z,98413.81
2022-12-17T14:26:22.715Z,98411.41
2022-12-17T14:28:54.927Z,98417.09
2022-12-17T14:31:29.447Z,98419.50
2022-12-17T14:34:08.168Z,98420.94
2022-12-17T14:36:40.856Z,98428.63
2022-12-17T14:39:20.121Z,98427.03
2022-12-17T14:42:05.491Z,98428.50
2022-12-17T14:44:32.409Z,98440.50
2022-12-17T14:47:23.145Z,98446.28
2022-12-17T14:49:56.043Z,98446.94
2022-12-17T14:52:33.857Z,98444.56
2022-12-17T14:55:00.293Z,98447.03
2022-12-17T14:57:27.365Z,98446.03
2022-12-17T14:59:53.908Z,98455.69
2022-12-17T15:02:23.758Z,98450.19
2022-12-17T15:04:52.602Z,98459.31
2022-12-17T15:07:24.698Z,98461.75
2022-12-17T15:09:52.870Z,98455.84
2022-12-17T15:12:24.979Z,98461.91
2022-12-17T15:14:51.529Z,98464.75
2022-12-17T15:17:17.936Z,98466.00
2022-12-17T15:19:44.686Z,98467.78
2022-12-17T15:22:15.777Z,98469.09
2022-12-17T15:24:43.204Z,98460.78
2022-12-17T15:27:14.034Z,98462.09
2022-12-17T15:29:40.649Z,98465.25
2022-12-17T15:32:07.305Z,98466.47
2022-12-17T15:34:34.196Z,98465.28
2022-12-17T15:37:00.673Z,98464.88
2022-12-17T15:39:26.958Z,98463.91
2022-12-17T15:42:12.077Z,98464.09
2022-12-17T15:44:38.545Z,98460.22
2022-12-17T15:47:05.146Z,98458.22
2022-12-17T15:49:33.415Z,98459.38
2022-12-17T15:51:59.891Z,98462.25
2022-12-17T15:54:26.422Z,98467.22
2022-12-17T15:56:54.954Z,98472.06
2022-12-17T15:59:22.343Z,98462.56
2022-12-17T16:01:48.915Z,98467.47
2022-12-17T16:04:20.307Z,98458.56
2022-12-17T16:06:51.108Z,98468.00
2022-12-17T16:09:17.624Z,98469.53
2022-12-17T16:11:44.092Z,98462.16
2022-12-17T16:14:10.423Z,98462.75
2022-12-17T16:16:36.901Z,98460.22
2022-12-17T16:19:03.555Z,98471.78
2022-12-17T16:21:30.074Z,98460.47
2022-12-17T16:23:56.599Z,98470.25
2022-12-17T16:26:23.145Z,98475.94
2022-12-17T16:28:50.034Z,98478.19
2022-12-17T16:31:16.825Z,98473.41
2022-12-17T16:33:44.659Z,98488.34
2022-12-17T16:36:13.903Z,98483.78
2022-12-17T16:38:46.102Z,98498.53
2022-12-17T16:41:13.561Z,98494.66
2022-12-17T16:43:40.550Z,98507.03
2022-12-17T16:46:26.445Z,98504.75
2022-12-17T16:48:53.962Z,98506.16
2022-12-17T16:51:28.523Z,98514.50
2022-12-17T16:53:56.111Z,98515.63
2022-12-17T16:56:25.153Z,98510.84
2022-12-17T16:58:52.745Z,98516.78
2022-12-17T17:01:24.942Z,98509.91
2022-12-17T17:03:51.566Z,98520.56
2022-12-17T17:06:19.627Z,98535.53
2022-12-17T17:08:46.426Z,98540.38
2022-12-17T17:11:16.259Z,98537.75
2022-12-17T17:13:43.077Z,98537.28
2022-12-17T17:16:10.700Z,98536.00
2022-12-17T17:18:38.203Z,98538.41
2022-12-17T17:21:23.833Z,98540.59
2022-12-17T17:23:57.217Z,98537.41
2022-12-17T17:26:25.053Z,98545.47
2022-12-17T17:28:52.107Z,98554.25
2022-12-17T17:31:19.020Z,98557.75
2022-12-17T17:33:48.640Z,98555.66
2022-12-17T17:36:27.556Z,98554.38
2022-12-17T17:38:56.654Z,98553.06
2022-12-17T17:41:27.494Z,98556.25
2022-12-17T17:43:55.991Z,98554.94
2022-12-17T17:46:22.624Z,98557.94
2022-12-17T17:48:55.273Z,98562.72
2022-12-17T17:51:52.161Z,98555.81
2022-12-17T17:54:14.386Z,98561.19
2022-12-17T17:56:42.476Z,98565.47
2022-12-17T17:59:12.550Z,98562.31
2022-12-17T18:01:42.064Z,98562.81
2022-12-17T18:04:12.422Z,98570.56
2022-12-17T18:06:52.974Z,98579.88
2022-12-17T18:09:27.418Z,98573.50
2022-12-17T18:11:53.786Z,98579.91
2022-12-17T18:14:20.358Z,98587.88
2022-12-17T18:16:48.199Z,98589.50
2022-12-17T18:19:17.465Z,98590.56
2022-12-17T18:21:44.361Z,98591.63
2022-12-17T18:24:15.109Z,98590.03
2022-12-17T18:26:43.229Z,98591.09
2022-12-17T18:29:16.511Z,98597.00
2022-12-17T18:31:47.201Z,98607.63
2022-12-17T18:34:19.826Z,98612.41
2022-12-17T18:36:46.536Z,98607.66
2022-12-17T18:39:14.449Z,98624.63
2022-12-17T18:42:00.130Z,98627.84
2022-12-17T18:44:27.537Z,98625.69
2022-12-17T18:46:54.105Z,98628.38
2022-12-17T18:49:22.861Z,98625.16
2022-12-17T18:51:50.906Z,98619.31
2022-12-17T18:54:23.465Z,98617.19
2022-12-17T18:57:01.041Z,98617.19
2022-12-17T18:59:29.907Z,98617.19
2022-12-17T19:01:57.238Z,98628.84
2022-12-17T19:04:25.819Z,98628.06
2022-12-17T19:06:53.802Z,98628.84
2022-12-17T19:09:21.879Z,98630.44
2022-12-17T19:11:48.942Z,98633.09
2022-12-17T19:14:17.377Z,98633.63
2022-12-17T19:16:44.997Z,98627.78
2022-12-17T19:19:13.244Z,98639.97
2022-12-17T19:21:40.373Z,98633.59
2022-12-17T19:24:08.847Z,98629.88
2022-12-17T19:26:36.228Z,98629.84
2022-12-17T19:29:03.698Z,98635.13
2022-12-17T19:31:32.269Z,98641.25
2022-12-17T19:34:01.001Z,98649.97
2022-12-17T19:36:29.673Z,98647.56
2022-12-17T19:38:59.513Z,98645.97
2022-12-17T19:41:27.782Z,98654.19
2022-12-17T19:43:59.605Z,98645.72
2022-12-17T19:46:26.625Z,98641.97
2022-12-17T19:48:54.804Z,98645.66
2022-12-17T19:51:26.093Z,98639.28
2022-12-17T19:53:52.544Z,98640.81
2022-12-17T19:56:27.485Z,98634.22
2022-12-17T19:58:57.012Z,98634.72
2022-12-17T20:01:26.221Z,98640.28
2022-12-17T20:03:53.309Z,98643.19
2022-12-17T20:06:22.125Z,98650.31
2022-12-17T20:08:48.829Z,98652.94
2022-12-17T20:11:34.075Z,98642.88
2022-12-17T20:14:03.370Z,98646.31
2022-12-17T20:16:32.171Z,98651.34
2022-12-17T20:19:00.519Z,98641.81
2022-12-17T20:21:27.521Z,98648.13
2022-12-17T20:23:54.208Z,98659.78
2022-12-17T20:26:21.094Z,98651.28
2022-12-17T20:28:47.807Z,98657.06
2022-12-17T20:31:14.410Z,98655.47
2022-12-17T20:33:41.069Z,98654.16
2022-12-17T20:36:13.943Z,98652.81
2022-12-17T20:38:41.595Z,98647.78
2022-12-17T20:41:13.941Z,98651.72
2022-12-17T20:43:40.806Z,98649.88
2022-12-17T20:46:09.530Z,98646.69
2022-12-17T20:48:37.891Z,98649.59
2022-12-17T20:51:09.745Z,98650.31
2022-12-17T20:53:37.332Z,98655.28
2022-12-17T20:56:07.328Z,98661.31
2022-12-17T20:58:33.856Z,98660.06
2022-12-17T21:01:20.614Z,98663.75
2022-12-17T21:03:49.572Z,98660.25
2022-12-17T21:06:28.481Z,98662.56
2022-12-17T21:08:56.358Z,98652.75
2022-12-17T21:11:25.854Z,98664.38
2022-12-17T21:13:53.071Z,98656.75
2022-12-17T21:16:22.735Z,98655.66
2022-12-17T21:18:52.339Z,98658.28
2022-12-17T21:21:22.529Z,98656.19
2022-12-17T21:23:50.614Z,98664.56
2022-12-17T21:26:25.645Z,98671.97
2022-12-17T21:28:54.910Z,98662.44
2022-12-17T21:31:28.093Z,98664.03
2022-12-17T21:33:57.422Z,98663.97
2022-12-17T21:36:26.262Z,98665.09
2022-12-17T21:38:53.519Z,98680.06
2022-12-17T21:41:26.059Z,98677.69
2022-12-17T21:43:54.676Z,98688.47
2022-12-17T21:46:21.573Z,98684.56
2022-12-17T21:48:48.640Z,98681.31
2022-12-17T21:51:15.499Z,98694.03
2022-12-17T21:53:43.742Z,98704.50
2022-12-17T21:56:16.217Z,98714.19
2022-12-17T21:58:44.570Z,98726.41
2022-12-17T22:01:19.095Z,98731.41
2022-12-17T22:03:48.411Z,98734.00
2022-12-17T22:06:24.162Z,98738.31
2022-12-17T22:08:56.055Z,98730.50
2022-12-17T22:11:28.001Z,98740.63
2022-12-17T22:14:15.561Z,98733.56
2022-12-17T22:16:48.901Z,98745.28
2022-12-17T22:19:15.469Z,98751.47
2022-12-17T22:21:44.492Z,98753.38
2022-12-17T22:24:16.054Z,98743.63
2022-12-17T22:26:43.191Z,98760.19
2022-12-17T22:29:09.790Z,98751.72
2022-12-17T22:31:55.073Z,98742.00
2022-12-17T22:35:35.065Z,98741.28
2022-12-17T22:40:01.335Z,98743.97
2022-12-17T22:44:34.587Z,98757.53
2022-12-17T22:44:37.051Z,98758.13
2022-12-17T22:45:47.070Z,98751.00
2022-12-17T22:48:14.970Z,98748.38
2022-12-17T22:50:46.488Z,98750.75
2022-12-17T22:53:26.699Z,98755.56
2022-12-17T22:55:53.309Z,98748.09
2022-12-17T22:58:20.825Z,98752.94
2022-12-17T23:00:47.370Z,98760.63
2022-12-17T23:03:13.989Z,98757.44
2022-12-17T23:05:40.647Z,98749.47
2022-12-17T23:08:07.195Z,98744.94
2022-12-17T23:10:33.565Z,98757.69
2022-12-17T23:13:00.348Z,98759.03
2022-12-17T23:15:26.824Z,98745.75
2022-12-17T23:17:56.801Z,98749.47
2022-12-17T23:20:23.736Z,98753.69
2022-12-17T23:22:50.304Z,98735.66
2022-12-17T23:25:18.874Z,98730.31
2022-12-17T23:27:46.113Z,98727.94
2022-12-17T23:30:14.839Z,98727.91
2022-12-17T23:32:41.893Z,98726.84
2022-12-17T23:35:09.090Z,98730.84
2022-12-17T23:37:39.841Z,98734.56
2022-12-17T23:40:11.025Z,98735.09
2022-12-17T23:42:38.395Z,98736.69
2022-12-17T23:45:06.733Z,98745.19
2022-12-17T23:47:33.308Z,98754.50
2022-12-17T23:49:59.823Z,98758.50
2022-12-17T23:52:26.330Z,98765.41
2022-12-17T23:54:52.898Z,98759.53
2022-12-17T23:57:19.726Z,98766.44
2022-12-17T23:59:46.223Z,98763.25
